Time;durP1;ratioP1;P1;durP2;ratioP2;P2;SDS_P1;SDS_P2;PMS_P1;PMS_P2;Temp;Humidity;BMP_temperature;BMP_pressure;BME280_temperature;BME280_humidity;BME280_pressure;Samples;Min_cycle;Max_cycle;Signal;HPM_P1;HPM_P2
2023/08/27 00:01:25;;;;;;;3.57;3.27;;;16.20;99.90;;;;;;5062728;28;20567;-72
2023/08/27 00:03:51;;;;;;;3.50;3.20;;;16.20;99.90;;;;;;5048310;28;20188;-72
2023/08/27 00:06:17;;;;;;;3.83;3.37;;;16.20;99.90;;;;;;5046256;28;20412;-71
2023/08/27 00:08:42;;;;;;;3.23;2.50;;;16.10;99.90;;;;;;5047428;28;20550;-72
2023/08/27 00:11:08;;;;;;;2.77;2.57;;;16.10;99.90;;;;;;5048165;28;20650;-72
2023/08/27 00:13:34;;;;;;;3.60;3.30;;;16.00;99.90;;;;;;5047670;28;20549;-72
2023/08/27 00:16:00;;;;;;;3.33;2.70;;;16.00;99.90;;;;;;5046120;28;20174;-72
2023/08/27 00:18:26;;;;;;;4.73;3.03;;;16.00;99.90;;;;;;5046202;28;20809;-72
2023/08/27 00:20:52;;;;;;;3.37;3.00;;;15.90;99.90;;;;;;5047704;28;20920;-72
2023/08/27 00:23:17;;;;;;;3.27;2.83;;;15.90;99.90;;;;;;5047974;28;20185;-72
2023/08/27 00:25:44;;;;;;;2.93;2.63;;;16.00;99.90;;;;;;5047159;28;20192;-72
2023/08/27 00:28:13;;;;;;;3.43;2.70;;;16.00;99.90;;;;;;5045748;28;20205;-72
2023/08/27 00:30:39;;;;;;;3.37;2.83;;;16.00;99.90;;;;;;5047186;28;20455;-72
2023/08/27 00:33:06;;;;;;;3.00;2.50;;;16.00;99.90;;;;;;5047004;28;20460;-71
2023/08/27 00:35:31;;;;;;;3.63;2.77;;;16.00;99.90;;;;;;5047186;28;20789;-72
2023/08/27 00:37:57;;;;;;;4.47;2.80;;;15.90;99.90;;;;;;5045203;28;20447;-72
2023/08/27 00:40:23;;;;;;;3.10;2.80;;;15.80;99.90;;;;;;5047484;28;20725;-72
2023/08/27 00:42:48;;;;;;;2.83;2.00;;;15.80;99.90;;;;;;5047395;28;20268;-72
2023/08/27 00:45:14;;;;;;;2.53;2.20;;;15.80;99.90;;;;;;5046357;28;20182;-73
2023/08/27 00:47:40;;;;;;;3.20;2.90;;;15.80;99.90;;;;;;5047072;28;20181;-72
2023/08/27 00:50:08;;;;;;;2.57;2.33;;;15.80;99.90;;;;;;5047161;28;20205;-73
2023/08/27 00:52:34;;;;;;;2.67;2.47;;;15.80;99.90;;;;;;5047650;28;20263;-73
2023/08/27 00:55:01;;;;;;;2.67;2.47;;;15.80;99.90;;;;;;5046880;28;20404;-72
2023/08/27 00:57:27;;;;;;;3.03;2.83;;;15.80;99.90;;;;;;5045789;28;20917;-73
2023/08/27 00:59:56;;;;;;;2.97;2.67;;;15.80;99.90;;;;;;5046528;28;20491;-73
2023/08/27 01:02:21;;;;;;;2.63;2.43;;;15.80;99.90;;;;;;5047349;28;20420;-73
2023/08/27 01:04:47;;;;;;;2.50;2.30;;;15.70;99.90;;;;;;5047106;28;20415;-72
2023/08/27 01:07:27;;;;;;;2.47;2.27;;;15.70;99.90;;;;;;5046310;28;20260;-72
2023/08/27 01:10:09;;;;;;;2.63;2.33;;;15.60;99.90;;;;;;5047271;28;20561;-72
2023/08/27 01:12:53;;;;;;;2.70;2.50;;;15.50;99.90;;;;;;5047412;28;20459;-73
2023/08/27 01:15:21;;;;;;;4.97;2.60;;;15.40;99.90;;;;;;5046887;28;20487;-72
2023/08/27 01:17:48;;;;;;;2.30;2.10;;;15.50;99.90;;;;;;5046798;28;20428;-72
2023/08/27 01:20:15;;;;;;;2.83;2.53;;;15.50;99.90;;;;;;5046126;28;20470;-73
2023/08/27 01:22:40;;;;;;;2.73;2.47;;;15.50;99.90;;;;;;5047272;28;20932;-72
2023/08/27 01:25:08;;;;;;;3.40;3.10;;;15.50;99.90;;;;;;5046919;28;20416;-73
2023/08/27 01:27:44;;;;;;;3.40;2.67;;;15.50;99.90;;;;;;5046147;28;20647;-72
2023/08/27 01:30:20;;;;;;;2.60;2.37;;;15.60;99.90;;;;;;5047183;28;20946;-72
2023/08/27 01:32:51;;;;;;;3.20;2.47;;;15.60;99.90;;;;;;5047190;28;20489;-72
2023/08/27 01:35:17;;;;;;;4.53;2.97;;;15.60;99.90;;;;;;5046662;28;20448;-72
2023/08/27 01:37:43;;;;;;;2.97;2.03;;;15.60;99.90;;;;;;5046471;28;20408;-72
2023/08/27 01:40:09;;;;;;;3.80;2.90;;;15.70;99.90;;;;;;5046904;28;20189;-73
2023/08/27 01:42:35;;;;;;;4.40;2.77;;;15.60;99.90;;;;;;5047007;28;20415;-72
2023/08/27 01:45:03;;;;;;;2.90;2.70;;;15.60;99.90;;;;;;5047705;28;20418;-72
2023/08/27 01:47:30;;;;;;;3.10;2.90;;;15.70;99.90;;;;;;5049956;28;20566;-73
2023/08/27 01:49:55;;;;;;;3.40;3.10;;;15.60;99.90;;;;;;5050756;28;20428;-72
2023/08/27 01:52:21;;;;;;;3.40;2.80;;;15.60;99.90;;;;;;5050249;28;20420;-73
2023/08/27 01:54:47;;;;;;;3.97;3.00;;;15.60;99.90;;;;;;5050363;28;20667;-72
2023/08/27 01:57:13;;;;;;;3.43;2.83;;;15.60;99.90;;;;;;5049891;28;20416;-72
2023/08/27 01:59:39;;;;;;;3.40;3.10;;;15.60;99.90;;;;;;5049326;28;20494;-72
2023/08/27 02:02:04;;;;;;;3.17;2.87;;;15.60;99.90;;;;;;5049410;28;20653;-72
2023/08/27 02:04:30;;;;;;;2.67;2.47;;;15.70;99.90;;;;;;5050186;28;20182;-72
2023/08/27 02:06:56;;;;;;;3.00;2.80;;;15.70;99.90;;;;;;5048252;28;20177;-72
2023/08/27 02:09:21;;;;;;;3.03;2.73;;;15.70;99.90;;;;;;5050107;28;20239;-72
2023/08/27 02:11:49;;;;;;;3.10;2.80;;;15.60;99.90;;;;;;5048914;28;20177;-73
2023/08/27 02:14:15;;;;;;;4.27;3.27;;;15.60;99.90;;;;;;5050537;28;20213;-73
2023/08/27 02:16:41;;;;;;;6.20;3.20;;;15.60;99.90;;;;;;5049128;28;20416;-72
2023/08/27 02:19:07;;;;;;;3.37;3.07;;;15.70;99.90;;;;;;5050377;28;20438;-73
2023/08/27 02:21:33;;;;;;;3.10;2.60;;;15.70;99.90;;;;;;5050327;28;20280;-73
2023/08/27 02:23:59;;;;;;;7.40;3.47;;;15.70;99.90;;;;;;5050656;28;20257;-72
2023/08/27 02:26:25;;;;;;;3.40;3.10;;;15.70;99.90;;;;;;5048403;28;20570;-72
2023/08/27 02:28:51;;;;;;;4.60;3.03;;;15.70;99.90;;;;;;5050541;28;20531;-71
2023/08/27 02:31:17;;;;;;;4.00;3.13;;;15.70;99.90;;;;;;5061966;28;20424;-72
2023/08/27 02:33:44;;;;;;;3.00;2.80;;;15.70;99.90;;;;;;5061724;28;20241;-72
2023/08/27 02:36:09;;;;;;;2.80;2.17;;;15.70;99.90;;;;;;5061205;28;20238;-72
2023/08/27 02:38:35;;;;;;;4.03;3.07;;;15.60;99.90;;;;;;5054725;28;20460;-72
2023/08/27 02:41:01;;;;;;;3.40;2.60;;;15.60;99.90;;;;;;5050339;28;20772;-72
2023/08/27 02:43:27;;;;;;;4.10;3.20;;;15.50;99.90;;;;;;5048638;28;20185;-72
2023/08/27 02:45:52;;;;;;;2.80;2.60;;;15.50;99.90;;;;;;5048099;28;20178;-72
2023/08/27 02:48:18;;;;;;;4.13;2.80;;;15.50;99.90;;;;;;5048964;28;20216;-72
2023/08/27 02:50:44;;;;;;;4.60;2.70;;;15.40;99.90;;;;;;5049987;28;20290;-72
2023/08/27 02:53:10;;;;;;;2.77;2.57;;;15.30;99.90;;;;;;5049095;28;20205;-72
2023/08/27 02:55:35;;;;;;;3.40;2.60;;;15.20;99.90;;;;;;5047019;28;20566;-72
2023/08/27 02:58:02;;;;;;;2.70;2.50;;;15.10;99.90;;;;;;5048305;28;20198;-72
2023/08/27 03:00:28;;;;;;;3.00;2.70;;;15.10;99.90;;;;;;5048921;28;20178;-72
2023/08/27 03:02:56;;;;;;;3.23;2.80;;;15.20;99.90;;;;;;5049376;28;20419;-71
2023/08/27 03:05:22;;;;;;;3.47;3.17;;;15.20;99.90;;;;;;5048943;28;20420;-71
2023/08/27 03:07:48;;;;;;;2.70;2.50;;;15.20;99.90;;;;;;5048521;28;20474;-72
2023/08/27 03:10:14;;;;;;;3.87;2.97;;;15.10;99.90;;;;;;5047577;28;20477;-72
2023/08/27 03:12:40;;;;;;;3.83;3.03;;;15.20;99.90;;;;;;5049076;28;20217;-72
2023/08/27 03:15:06;;;;;;;2.87;2.43;;;15.10;99.90;;;;;;5048771;28;20174;-72
2023/08/27 03:17:32;;;;;;;2.60;2.40;;;15.10;99.90;;;;;;5048429;28;20174;-72
2023/08/27 03:19:58;;;;;;;2.77;2.50;;;15.10;99.90;;;;;;5049049;28;20485;-72
2023/08/27 03:22:24;;;;;;;4.90;2.67;;;15.00;99.90;;;;;;5048523;28;20507;-72
2023/08/27 03:24:50;;;;;;;2.70;2.50;;;15.00;99.90;;;;;;5048614;28;20200;-71
2023/08/27 03:27:15;;;;;;;3.27;2.33;;;15.10;99.90;;;;;;5046559;28;20177;-72
2023/08/27 03:29:41;;;;;;;4.07;2.40;;;14.90;99.90;;;;;;5048615;28;20276;-72
2023/08/27 03:32:07;;;;;;;2.80;2.50;;;14.80;99.90;;;;;;5048619;28;20219;-72
2023/08/27 03:34:32;;;;;;;3.70;2.47;;;14.70;99.90;;;;;;5048326;28;20292;-71
2023/08/27 03:36:58;;;;;;;2.93;2.73;;;14.70;99.90;;;;;;5047948;28;20564;-72
2023/08/27 03:39:24;;;;;;;3.07;2.70;;;14.60;99.90;;;;;;5030207;28;20288;-72
2023/08/27 03:41:50;;;;;;;3.60;2.80;;;14.60;99.90;;;;;;5048531;28;20491;-72
2023/08/27 03:44:15;;;;;;;2.70;2.50;;;14.60;99.90;;;;;;5048726;28;20522;-72
2023/08/27 03:46:41;;;;;;;2.50;2.30;;;14.70;99.90;;;;;;5046076;28;20170;-72
2023/08/27 03:49:07;;;;;;;3.70;2.60;;;14.60;99.90;;;;;;5048503;28;20210;-71
2023/08/27 03:51:33;;;;;;;2.90;2.67;;;14.50;99.90;;;;;;5048174;28;20169;-72
2023/08/27 03:53:59;;;;;;;3.17;2.13;;;14.40;99.90;;;;;;5048307;28;20704;-72
2023/08/27 03:56:24;;;;;;;3.60;2.60;;;14.40;99.90;;;;;;5047565;28;20284;-72
2023/08/27 03:58:51;;;;;;;2.53;2.33;;;14.30;99.90;;;;;;5046445;28;20468;-72
2023/08/27 04:01:17;;;;;;;2.47;2.27;;;14.30;99.90;;;;;;5047743;28;20223;-72
2023/08/27 04:03:43;;;;;;;2.60;2.40;;;14.30;99.90;;;;;;5046550;28;20510;-72
2023/08/27 04:06:10;;;;;;;2.90;2.23;;;14.30;99.90;;;;;;5047905;28;20417;-72
2023/08/27 04:08:36;;;;;;;3.33;2.87;;;14.40;99.90;;;;;;5047127;28;20436;-72
2023/08/27 04:11:03;;;;;;;4.30;2.50;;;14.50;99.90;;;;;;5048172;28;20483;-72
2023/08/27 04:13:30;;;;;;;2.63;2.40;;;14.60;99.90;;;;;;5047977;28;20440;-72
2023/08/27 04:16:00;;;;;;;2.70;2.50;;;14.70;99.90;;;;;;5047142;28;20416;-72
2023/08/27 04:18:27;;;;;;;2.33;2.13;;;14.70;99.90;;;;;;5046004;28;20451;-73
2023/08/27 04:20:53;;;;;;;3.67;2.10;;;14.70;99.90;;;;;;5047798;28;21046;-72
2023/08/27 04:23:18;;;;;;;2.10;1.90;;;14.60;99.90;;;;;;5047681;28;20420;-72
2023/08/27 04:25:45;;;;;;;2.77;2.20;;;14.70;99.90;;;;;;5047398;28;20821;-72
2023/08/27 04:28:10;;;;;;;2.20;2.00;;;14.70;99.90;;;;;;5045592;28;20228;-72
2023/08/27 04:30:37;;;;;;;3.17;2.50;;;14.80;99.90;;;;;;5047547;28;20753;-72
2023/08/27 04:33:05;;;;;;;3.20;1.90;;;14.90;99.90;;;;;;5047387;28;20481;-72
2023/08/27 04:35:31;;;;;;;2.07;1.90;;;14.90;99.90;;;;;;5048038;28;20778;-72
2023/08/27 04:37:57;;;;;;;2.77;2.43;;;15.00;99.90;;;;;;5046694;28;20404;-72
2023/08/27 04:40:22;;;;;;;6.13;2.03;;;15.00;99.90;;;;;;5047698;28;20910;-72
2023/08/27 04:42:48;;;;;;;2.73;2.10;;;15.00;99.90;;;;;;5047474;28;20205;-72
2023/08/27 04:45:14;;;;;;;2.60;1.90;;;15.00;99.90;;;;;;5047128;28;20204;-72
2023/08/27 04:47:41;;;;;;;4.30;1.97;;;15.10;99.90;;;;;;5047086;28;20598;-72
2023/08/27 04:50:08;;;;;;;1.90;1.70;;;15.10;99.90;;;;;;5047332;28;20420;-72
2023/08/27 04:52:34;;;;;;;1.67;1.57;;;15.10;99.90;;;;;;5047495;28;20448;-72
2023/08/27 04:55:01;;;;;;;2.07;1.90;;;15.20;99.90;;;;;;5045536;28;20400;-72
2023/08/27 04:57:26;;;;;;;2.23;2.00;;;15.20;99.90;;;;;;5047019;28;20404;-72
2023/08/27 04:59:54;;;;;;;2.50;2.30;;;15.20;99.90;;;;;;5046939;28;20428;-72
2023/08/27 05:02:19;;;;;;;2.40;2.20;;;15.20;99.90;;;;;;5046227;28;20170;-72
2023/08/27 05:04:46;;;;;;;3.57;2.13;;;15.10;99.90;;;;;;5045725;28;20405;-72
2023/08/27 05:07:11;;;;;;;5.50;2.33;;;15.20;99.90;;;;;;5045421;28;20552;-72
2023/08/27 05:09:37;;;;;;;2.10;1.80;;;15.20;99.90;;;;;;5047290;28;20432;-72
2023/08/27 05:12:03;;;;;;;2.13;1.93;;;15.20;99.90;;;;;;5047412;28;20182;-71
2023/08/27 05:14:29;;;;;;;2.20;2.00;;;15.30;99.90;;;;;;5047121;28;20229;-72
2023/08/27 05:16:55;;;;;;;2.87;1.77;;;15.40;99.90;;;;;;5045427;28;20766;-72
2023/08/27 05:19:20;;;;;;;3.10;1.90;;;15.40;99.90;;;;;;5046838;28;20190;-72
2023/08/27 05:21:46;;;;;;;2.90;1.83;;;15.40;99.90;;;;;;5051548;28;20185;-72
2023/08/27 05:24:12;;;;;;;3.30;2.10;;;15.40;99.90;;;;;;5050959;28;20643;-72
2023/08/27 05:26:37;;;;;;;1.70;1.50;;;15.30;99.90;;;;;;5050440;28;20647;-72
2023/08/27 05:29:04;;;;;;;2.00;1.63;;;15.40;99.90;;;;;;5050886;28;20210;-72
2023/08/27 05:31:29;;;;;;;2.43;2.10;;;15.40;99.90;;;;;;5049837;28;20194;-72
2023/08/27 05:33:55;;;;;;;1.77;1.67;;;15.40;99.90;;;;;;5051048;28;20683;-72
2023/08/27 05:36:21;;;;;;;3.60;1.90;;;15.60;99.90;;;;;;5050606;28;20185;-72
2023/08/27 05:38:48;;;;;;;2.30;1.60;;;15.70;99.90;;;;;;5050875;28;20200;-72
2023/08/27 05:41:13;;;;;;;1.93;1.73;;;15.80;99.90;;;;;;5051335;28;20200;-72
2023/08/27 05:43:41;;;;;;;2.53;2.03;;;15.80;99.90;;;;;;5051424;28;20404;-72
2023/08/27 05:46:07;;;;;;;2.30;1.73;;;15.90;99.90;;;;;;5054418;28;20176;-71
2023/08/27 05:48:32;;;;;;;2.90;1.80;;;15.90;99.90;;;;;;5061382;28;21130;-72
2023/08/27 05:51:03;;;;;;;5.30;2.33;;;15.90;99.90;;;;;;5057700;28;20231;-72
2023/08/27 05:53:28;;;;;;;3.47;2.00;;;16.00;99.90;;;;;;5056754;28;20205;-72
2023/08/27 05:55:54;;;;;;;2.03;1.83;;;15.90;99.90;;;;;;5050096;28;20419;-72
2023/08/27 05:58:20;;;;;;;2.17;1.97;;;15.90;99.90;;;;;;5050329;28;20201;-72
2023/08/27 06:00:45;;;;;;;2.53;2.00;;;15.90;99.90;;;;;;5049842;28;20177;-72
2023/08/27 06:03:11;;;;;;;2.27;2.07;;;15.80;99.90;;;;;;5050836;28;20272;-72
2023/08/27 06:05:37;;;;;;;3.13;2.00;;;15.90;99.90;;;;;;5050142;28;20178;-72
2023/08/27 06:08:04;;;;;;;2.60;2.40;;;15.80;99.90;;;;;;5049670;28;20212;-72
2023/08/27 06:10:30;;;;;;;2.20;2.00;;;15.80;99.90;;;;;;5049309;28;20427;-71
2023/08/27 06:12:57;;;;;;;3.00;2.70;;;15.80;99.90;;;;;;5050051;28;20452;-71
2023/08/27 06:15:27;;;;;;;1.97;1.70;;;15.90;99.90;;;;;;5049787;28;20952;-71
2023/08/27 06:17:53;;;;;;;2.70;2.10;;;15.90;99.90;;;;;;5049276;28;20435;-72
2023/08/27 06:20:19;;;;;;;2.83;2.07;;;15.80;99.90;;;;;;5048800;28;20413;-71
2023/08/27 06:22:45;;;;;;;6.80;2.60;;;15.80;99.90;;;;;;5049968;28;20416;-72
2023/08/27 06:25:11;;;;;;;4.93;2.50;;;15.80;99.90;;;;;;5049718;28;20653;-71
2023/08/27 06:27:37;;;;;;;3.00;2.17;;;15.80;99.90;;;;;;5049495;28;20239;-71
2023/08/27 06:30:04;;;;;;;3.60;2.70;;;15.90;99.90;;;;;;5049217;28;20447;-71
2023/08/27 06:32:30;;;;;;;2.20;2.00;;;15.80;99.90;;;;;;5047807;28;20939;-72
2023/08/27 06:34:56;;;;;;;3.10;2.10;;;15.90;99.90;;;;;;5049252;28;20906;-71
2023/08/27 06:37:22;;;;;;;5.73;2.27;;;15.90;99.90;;;;;;5049263;28;20476;-71
2023/08/27 06:39:49;;;;;;;2.30;2.10;;;15.80;99.90;;;;;;5049621;28;20301;-71
2023/08/27 06:42:15;;;;;;;2.53;2.20;;;15.90;99.90;;;;;;5049776;28;20420;-71
2023/08/27 06:44:41;;;;;;;2.10;1.90;;;15.80;99.90;;;;;;5049286;28;20438;-71
2023/08/27 06:47:07;;;;;;;2.20;1.60;;;15.90;99.90;;;;;;5048756;28;20405;-71
2023/08/27 06:49:32;;;;;;;1.93;1.83;;;16.00;99.90;;;;;;5049271;28;20201;-71
2023/08/27 06:51:58;;;;;;;2.17;1.90;;;16.00;99.90;;;;;;5049419;28;20631;-71
2023/08/27 06:54:24;;;;;;;3.13;2.30;;;16.00;99.90;;;;;;5049262;28;20205;-71
2023/08/27 06:56:50;;;;;;;2.80;1.97;;;15.90;99.90;;;;;;5047417;28;20737;-71
2023/08/27 06:59:16;;;;;;;3.30;1.90;;;16.00;99.90;;;;;;5048205;28;20197;-72
2023/08/27 07:01:42;;;;;;;2.97;2.30;;;16.10;99.90;;;;;;5049389;28;20187;-71
2023/08/27 07:04:07;;;;;;;2.70;2.20;;;16.10;99.90;;;;;;5049035;28;20425;-71
2023/08/27 07:06:33;;;;;;;2.23;2.03;;;16.10;99.90;;;;;;5048210;28;20178;-71
2023/08/27 07:09:00;;;;;;;2.57;2.37;;;16.20;99.90;;;;;;5047781;28;20190;-71
2023/08/27 07:11:25;;;;;;;3.10;2.60;;;16.20;99.90;;;;;;5049137;28;20400;-71
2023/08/27 07:13:51;;;;;;;2.80;2.60;;;16.20;99.90;;;;;;5047862;28;20440;-71
2023/08/27 07:16:19;;;;;;;2.60;2.40;;;16.00;99.90;;;;;;5048349;28;20195;-72
2023/08/27 07:18:46;;;;;;;4.10;2.50;;;16.00;99.90;;;;;;5048520;28;20190;-71
2023/08/27 07:21:12;;;;;;;3.63;2.80;;;16.00;99.90;;;;;;5048904;28;20777;-72
2023/08/27 07:23:37;;;;;;;2.30;2.10;;;16.10;99.90;;;;;;5049092;28;20421;-71
2023/08/27 07:26:06;;;;;;;4.57;2.73;;;16.10;99.90;;;;;;5048630;28;20701;-71
2023/08/27 07:28:32;;;;;;;2.57;2.37;;;16.10;99.90;;;;;;5046766;28;20205;-71
2023/08/27 07:30:57;;;;;;;3.13;2.47;;;16.20;99.90;;;;;;5048627;28;20485;-71
2023/08/27 07:33:23;;;;;;;4.83;3.00;;;16.20;99.90;;;;;;5048422;28;20201;-71
2023/08/27 07:35:49;;;;;;;3.00;2.80;;;16.30;99.90;;;;;;5048442;28;20174;-71
2023/08/27 07:38:15;;;;;;;2.97;2.77;;;16.30;99.90;;;;;;5047693;28;20629;-72
2023/08/27 07:40:41;;;;;;;4.23;3.23;;;16.40;99.90;;;;;;5048449;28;20169;-72
2023/08/27 07:43:07;;;;;;;4.33;2.90;;;16.40;99.90;;;;;;5048377;28;20408;-72
2023/08/27 07:45:33;;;;;;;4.40;3.00;;;16.40;99.90;;;;;;5046605;28;20423;-72
2023/08/27 07:47:59;;;;;;;2.97;2.67;;;16.40;99.90;;;;;;5046597;28;20960;-71
2023/08/27 07:50:26;;;;;;;3.00;2.70;;;16.50;99.90;;;;;;5048468;28;20404;-72
2023/08/27 07:52:52;;;;;;;7.50;3.27;;;16.40;99.90;;;;;;5047327;28;20448;-72
2023/08/27 07:55:18;;;;;;;3.43;3.13;;;16.50;99.90;;;;;;5048295;28;21363;-71
2023/08/27 07:57:43;;;;;;;4.33;3.43;;;16.60;99.90;;;;;;5047474;28;20408;-71
2023/08/27 08:00:09;;;;;;;4.53;2.97;;;16.50;99.90;;;;;;5047588;28;20408;-72
2023/08/27 08:02:36;;;;;;;7.63;3.83;;;16.50;99.90;;;;;;5047850;28;20192;-72
2023/08/27 08:05:02;;;;;;;3.27;2.97;;;16.60;99.90;;;;;;5047971;28;20413;-72
2023/08/27 08:07:27;;;;;;;3.60;3.30;;;16.70;99.90;;;;;;5047551;28;20470;-71
2023/08/27 08:09:53;;;;;;;3.87;3.57;;;16.80;99.90;;;;;;5047704;28;20220;-71
2023/08/27 08:12:20;;;;;;;4.40;4.00;;;16.90;99.90;;;;;;5046720;28;20204;-72
2023/08/27 08:14:46;;;;;;;4.03;3.60;;;16.90;99.90;;;;;;5047217;28;20547;-72
2023/08/27 08:17:12;;;;;;;5.47;4.33;;;16.90;99.90;;;;;;5047453;28;20404;-72
2023/08/27 08:19:38;;;;;;;6.40;3.80;;;16.80;99.90;;;;;;5047736;28;20189;-71
2023/08/27 08:22:04;;;;;;;5.17;4.67;;;16.80;99.90;;;;;;5048075;28;20549;-71
2023/08/27 08:24:30;;;;;;;9.73;5.90;;;16.90;99.90;;;;;;5046594;28;20409;-72
2023/08/27 08:26:55;;;;;;;4.80;4.40;;;17.00;99.90;;;;;;5046829;28;20174;-72
2023/08/27 08:29:22;;;;;;;5.10;4.70;;;17.10;99.90;;;;;;5047873;28;20201;-72
2023/08/27 08:31:48;;;;;;;5.00;4.50;;;17.20;99.90;;;;;;5047382;28;20185;-72
2023/08/27 08:34:14;;;;;;;6.13;5.30;;;17.30;99.90;;;;;;5047806;28;20482;-71
2023/08/27 08:36:40;;;;;;;4.87;4.33;;;17.30;99.90;;;;;;5046839;28;20409;-72
2023/08/27 08:39:06;;;;;;;5.60;5.10;;;17.40;99.90;;;;;;5046375;28;20557;-71
2023/08/27 08:41:36;;;;;;;7.70;5.23;;;17.20;99.90;;;;;;5047733;28;20588;-72
2023/08/27 08:44:09;;;;;;;4.90;4.50;;;17.20;99.90;;;;;;5047761;28;20173;-72
2023/08/27 08:46:36;;;;;;;5.00;4.50;;;17.10;99.90;;;;;;5045509;28;20412;-72
2023/08/27 08:49:03;;;;;;;5.60;4.70;;;17.10;99.90;;;;;;5047787;28;20428;-72
2023/08/27 08:51:32;;;;;;;5.63;5.13;;;17.10;99.90;;;;;;5029716;28;20427;-72
2023/08/27 08:54:03;;;;;;;6.13;5.20;;;17.00;99.90;;;;;;5048089;28;20534;-72
2023/08/27 08:56:36;;;;;;;5.10;4.60;;;17.00;99.90;;;;;;5051544;28;20424;-72
2023/08/27 08:59:03;;;;;;;4.63;4.20;;;17.00;99.90;;;;;;5052472;28;20534;-72
2023/08/27 09:01:31;;;;;;;4.37;3.97;;;17.10;99.90;;;;;;5063862;28;20428;-71
2023/08/27 09:03:57;;;;;;;4.23;3.93;;;17.20;99.90;;;;;;5060544;28;20412;-72
2023/08/27 09:06:23;;;;;;;3.70;3.40;;;17.30;99.90;;;;;;5059420;28;20408;-71
2023/08/27 09:08:52;;;;;;;3.93;2.87;;;17.40;99.90;;;;;;5054925;28;20428;-71
2023/08/27 09:11:19;;;;;;;3.40;3.10;;;17.40;99.90;;;;;;5052857;28;20499;-71
2023/08/27 09:13:45;;;;;;;3.60;2.33;;;17.40;99.90;;;;;;5051606;28;20459;-71
2023/08/27 09:16:11;;;;;;;2.90;2.70;;;17.40;99.90;;;;;;5051201;28;20408;-71
2023/08/27 09:18:37;;;;;;;3.27;3.07;;;17.50;99.90;;;;;;5051161;28;20905;-72
2023/08/27 09:21:04;;;;;;;3.70;3.40;;;17.60;99.90;;;;;;5051572;28;20419;-71
2023/08/27 09:23:30;;;;;;;3.30;3.00;;;17.60;99.90;;;;;;5051825;28;20494;-71
2023/08/27 09:26:00;;;;;;;4.00;3.17;;;17.60;99.90;;;;;;5049435;28;20416;-71
2023/08/27 09:28:26;;;;;;;4.10;2.87;;;17.70;99.90;;;;;;5050637;28;20517;-71
2023/08/27 09:30:51;;;;;;;3.60;3.07;;;17.60;99.90;;;;;;5050900;28;20436;-71
2023/08/27 09:33:17;;;;;;;3.30;2.90;;;17.70;99.90;;;;;;5051221;28;20219;-72
2023/08/27 09:35:43;;;;;;;3.50;3.20;;;17.60;99.90;;;;;;5051085;28;20177;-71
2023/08/27 09:38:15;;;;;;;3.30;3.00;;;17.70;99.90;;;;;;5048988;28;20943;-71
2023/08/27 09:40:41;;;;;;;2.80;2.60;;;17.80;99.90;;;;;;5051141;28;20469;-71
2023/08/27 09:43:11;;;;;;;2.70;2.47;;;17.80;99.90;;;;;;5050810;28;20416;-71
2023/08/27 09:45:38;;;;;;;3.00;2.80;;;17.90;99.90;;;;;;5047906;28;20408;-71
2023/08/27 09:48:04;;;;;;;4.80;2.80;;;18.00;99.90;;;;;;5049711;28;20432;-71
2023/08/27 09:50:31;;;;;;;3.23;2.93;;;18.10;99.90;;;;;;5050912;28;20416;-71
2023/08/27 09:53:13;;;;;;;3.87;3.07;;;18.20;99.90;;;;;;5049163;28;20451;-71
2023/08/27 09:55:40;;;;;;;4.10;3.10;;;18.20;99.90;;;;;;5050335;28;20404;-71
2023/08/27 09:58:06;;;;;;;3.23;2.93;;;18.40;99.90;;;;;;5048581;28;20432;-71
2023/08/27 10:00:33;;;;;;;4.30;3.57;;;18.50;99.90;;;;;;5049468;28;20408;-71
2023/08/27 10:02:59;;;;;;;3.20;3.00;;;18.70;99.90;;;;;;5048998;28;21030;-71
2023/08/27 10:05:27;;;;;;;3.40;3.10;;;18.70;99.90;;;;;;5049974;28;20420;-71
2023/08/27 10:08:02;;;;;;;3.60;3.30;;;18.90;99.90;;;;;;5049469;28;20170;-71
2023/08/27 10:10:28;;;;;;;3.33;3.10;;;19.10;99.90;;;;;;5049536;28;20419;-71
2023/08/27 10:12:55;;;;;;;3.30;3.00;;;19.20;99.90;;;;;;5049933;28;20485;-71
2023/08/27 10:15:24;;;;;;;3.40;3.10;;;19.20;99.90;;;;;;5050032;28;20413;-71
2023/08/27 10:17:52;;;;;;;3.60;2.83;;;19.40;99.90;;;;;;5049240;28;20408;-71
2023/08/27 10:20:18;;;;;;;5.70;2.90;;;19.50;99.90;;;;;;5050255;28;20505;-71
2023/08/27 10:22:45;;;;;;;3.77;2.90;;;19.60;99.90;;;;;;5050009;28;20405;-72
2023/08/27 10:25:12;;;;;;;3.80;3.30;;;19.40;99.90;;;;;;5049799;28;20799;-71
2023/08/27 10:27:39;;;;;;;2.70;2.50;;;19.40;99.90;;;;;;5049477;28;20420;-71
2023/08/27 10:30:07;;;;;;;3.53;3.23;;;19.50;99.90;;;;;;5049701;28;20539;-71
2023/08/27 10:32:33;;;;;;;3.27;3.00;;;19.60;99.90;;;;;;5050103;28;20436;-72
2023/08/27 10:35:00;;;;;;;3.00;2.70;;;19.60;99.90;;;;;;5049765;28;20409;-71
2023/08/27 10:37:28;;;;;;;2.73;2.20;;;19.80;99.90;;;;;;5049341;28;20420;-71
2023/08/27 10:39:57;;;;;;;4.30;3.00;;;19.90;99.90;;;;;;5049520;28;20650;-71
2023/08/27 10:42:33;;;;;;;2.73;2.23;;;19.90;99.90;;;;;;5049803;28;20416;-71
2023/08/27 10:45:19;;;;;;;2.60;2.40;;;19.90;99.90;;;;;;5049170;28;20459;-71
2023/08/27 10:48:11;;;;;;;3.50;2.90;;;19.90;99.90;;;;;;5047560;28;20416;-71
2023/08/27 10:50:46;;;;;;;3.03;2.50;;;20.00;99.90;;;;;;5049818;28;20424;-71
2023/08/27 10:53:12;;;;;;;2.50;2.30;;;20.20;99.90;;;;;;5049046;28;21041;-71
2023/08/27 10:55:40;;;;;;;3.30;3.00;;;20.30;99.90;;;;;;5049272;28;20416;-71
2023/08/27 10:58:26;;;;;;;3.90;2.67;;;20.40;99.90;;;;;;5048249;28;20436;-71
2023/08/27 11:01:11;;;;;;;3.10;2.80;;;20.30;99.90;;;;;;5047093;28;20469;-71
2023/08/27 11:04:03;;;;;;;3.97;2.63;;;20.30;99.90;;;;;;5048985;28;20455;-72
2023/08/27 11:06:41;;;;;;;3.60;1.90;;;20.40;99.90;;;;;;5048330;28;20442;-72
2023/08/27 11:09:17;;;;;;;3.67;2.20;;;20.30;99.90;;;;;;5048948;28;20420;-71
2023/08/27 11:11:45;;;;;;;2.10;1.90;;;20.10;99.90;;;;;;5049289;28;20851;-71
2023/08/27 11:14:14;;;;;;;2.67;2.40;;;20.00;99.90;;;;;;5048940;28;20481;-71
2023/08/27 11:17:07;;;;;;;3.13;2.27;;;19.90;99.90;;;;;;5047743;28;20413;-71
2023/08/27 11:19:37;;;;;;;3.80;2.40;;;19.90;99.90;;;;;;5045674;28;20463;-72
2023/08/27 11:22:19;;;;;;;2.30;1.80;;;19.90;99.90;;;;;;5048963;28;20420;-71
2023/08/27 11:24:48;;;;;;;1.80;1.70;;;19.90;99.90;;;;;;5048601;28;20412;-71
2023/08/27 11:27:16;;;;;;;3.23;1.70;;;19.90;99.90;;;;;;5048112;28;20459;-71
2023/08/27 11:29:43;;;;;;;2.37;1.80;;;19.90;99.90;;;;;;5048658;28;20562;-71
2023/08/27 11:32:11;;;;;;;1.73;1.60;;;20.00;99.90;;;;;;5047544;28;20440;-71
2023/08/27 11:34:38;;;;;;;2.90;2.00;;;20.00;99.90;;;;;;5048349;28;20471;-71
2023/08/27 11:37:05;;;;;;;2.90;2.53;;;20.10;99.90;;;;;;5050325;28;20525;-71
2023/08/27 11:39:33;;;;;;;3.70;2.23;;;20.20;99.90;;;;;;5047919;28;20428;-71
2023/08/27 11:41:59;;;;;;;2.73;2.30;;;20.10;99.90;;;;;;5048726;28;20440;-71
2023/08/27 11:44:25;;;;;;;2.87;2.40;;;20.20;99.90;;;;;;5048435;28;20431;-72
2023/08/27 11:46:51;;;;;;;2.70;2.20;;;20.20;99.90;;;;;;5046703;28;20420;-71
2023/08/27 11:49:28;;;;;;;2.53;2.33;;;20.20;99.90;;;;;;5048488;28;20300;-72
2023/08/27 11:52:00;;;;;;;4.27;2.20;;;20.10;99.90;;;;;;5048678;28;20420;-71
2023/08/27 11:54:30;;;;;;;2.43;2.17;;;20.10;99.90;;;;;;5047965;28;21033;-71
2023/08/27 11:56:57;;;;;;;3.03;2.23;;;20.00;99.90;;;;;;5047751;28;20404;-71
2023/08/27 11:59:30;;;;;;;3.00;1.67;;;19.90;99.90;;;;;;5047429;28;20523;-71
2023/08/27 12:01:57;;;;;;;2.80;2.00;;;20.00;99.90;;;;;;5048569;28;20757;-71
2023/08/27 12:04:25;;;;;;;5.30;1.80;;;20.10;99.90;;;;;;5048161;28;20420;-71
2023/08/27 12:06:52;;;;;;;3.40;1.70;;;20.30;99.90;;;;;;5048033;28;20420;-71
2023/08/27 12:09:23;;;;;;;2.37;1.90;;;20.50;99.90;;;;;;5048096;28;20429;-72
2023/08/27 12:11:49;;;;;;;3.23;1.50;;;20.70;99.90;;;;;;5049048;28;20423;-71
2023/08/27 12:14:25;;;;;;;4.20;1.87;;;21.00;99.90;;;;;;5048537;28;21011;-72
2023/08/27 12:16:51;;;;;;;1.40;1.30;;;21.10;99.90;;;;;;5065963;28;20960;-71
2023/08/27 12:19:21;;;;;;;2.43;1.73;;;21.20;99.90;;;;;;5061456;28;20452;-71
2023/08/27 12:21:52;;;;;;;2.53;1.80;;;21.20;99.90;;;;;;5057526;28;20470;-71
2023/08/27 12:24:34;;;;;;;3.03;1.73;;;21.10;99.90;;;;;;5048558;28;20512;-71
2023/08/27 12:27:06;;;;;;;3.93;1.73;;;21.10;99.90;;;;;;5047608;28;20431;-72
2023/08/27 12:29:34;;;;;;;6.13;2.00;;;21.10;99.90;;;;;;5047968;28;20490;-72
2023/08/27 12:32:20;;;;;;;2.30;1.80;;;21.10;99.90;;;;;;5048008;28;20952;-72
2023/08/27 12:34:49;;;;;;;1.60;1.50;;;21.10;99.90;;;;;;5047499;28;20451;-72
2023/08/27 12:37:17;;;;;;;4.10;1.93;;;21.10;99.90;;;;;;5047272;28;20503;-71
2023/08/27 12:39:45;;;;;;;2.13;1.50;;;21.10;99.90;;;;;;5047075;28;20523;-71
2023/08/27 12:42:12;;;;;;;2.23;1.33;;;21.00;99.90;;;;;;5047770;28;20435;-71
2023/08/27 12:44:38;;;;;;;4.03;1.60;;;20.90;99.90;;;;;;5045603;28;20435;-71
2023/08/27 12:47:06;;;;;;;1.40;1.30;;;20.70;99.90;;;;;;5047222;28;20421;-71
2023/08/27 12:49:32;;;;;;;1.53;1.27;;;20.70;99.90;;;;;;5047195;28;20436;-71